sensor_id;sensor_type;location;lat;lon;timestamp;P1;durP1;ratioP1;P2;durP2;ratioP2
65936;SDS011;52707;52.086;5.418;2022-10-17T00:01:52;3.03;;;1.27;;
65936;SDS011;52707;52.086;5.418;2022-10-17T00:04:18;3.20;;;1.60;;
65936;SDS011;52707;52.086;5.418;2022-10-17T00:06:45;3.33;;;1.65;;
65936;SDS011;52707;52.086;5.418;2022-10-17T00:09:11;4.15;;;1.67;;
65936;SDS011;52707;52.086;5.418;2022-10-17T00:11:37;2.10;;;1.63;;
65936;SDS011;52707;52.086;5.418;2022-10-17T00:14:04;9.25;;;1.60;;
65936;SDS011;52707;52.086;5.418;2022-10-17T00:16:32;4.53;;;1.92;;
65936;SDS011;52707;52.086;5.418;2022-10-17T00:18:59;4.13;;;1.73;;
65936;SDS011;52707;52.086;5.418;2022-10-17T00:21:25;3.60;;;1.75;;
65936;SDS011;52707;52.086;5.418;2022-10-17T00:23:52;3.70;;;1.73;;
65936;SDS011;52707;52.086;5.418;2022-10-17T00:26:18;3.72;;;1.75;;
65936;SDS011;52707;52.086;5.418;2022-10-17T00:28:46;5.95;;;1.40;;
65936;SDS011;52707;52.086;5.418;2022-10-17T00:31:13;3.65;;;1.50;;
65936;SDS011;52707;52.086;5.418;2022-10-17T00:33:39;3.00;;;1.73;;
65936;SDS011;52707;52.086;5.418;2022-10-17T00:36:16;3.10;;;1.40;;
65936;SDS011;52707;52.086;5.418;2022-10-17T00:38:43;3.17;;;1.52;;
65936;SDS011;52707;52.086;5.418;2022-10-17T00:41:11;1.73;;;1.20;;
65936;SDS011;52707;52.086;5.418;2022-10-17T00:43:50;5.50;;;1.70;;
65936;SDS011;52707;52.086;5.418;2022-10-17T00:46:17;1.83;;;1.33;;
65936;SDS011;52707;52.086;5.418;2022-10-17T00:48:43;4.00;;;1.50;;
65936;SDS011;52707;52.086;5.418;2022-10-17T00:51:10;2.55;;;1.40;;
65936;SDS011;52707;52.086;5.418;2022-10-17T00:53:36;3.20;;;1.48;;
65936;SDS011;52707;52.086;5.418;2022-10-17T00:56:04;1.85;;;1.40;;
65936;SDS011;52707;52.086;5.418;2022-10-17T00:58:30;2.20;;;1.30;;
65936;SDS011;52707;52.086;5.418;2022-10-17T01:00:56;2.88;;;1.65;;
65936;SDS011;52707;52.086;5.418;2022-10-17T01:03:23;2.58;;;1.38;;
65936;SDS011;52707;52.086;5.418;2022-10-17T01:05:49;2.95;;;1.52;;
65936;SDS011;52707;52.086;5.418;2022-10-17T01:08:15;2.83;;;1.58;;
65936;SDS011;52707;52.086;5.418;2022-10-17T01:13:29;4.53;;;1.48;;
65936;SDS011;52707;52.086;5.418;2022-10-17T01:16:07;2.30;;;1.35;;
65936;SDS011;52707;52.086;5.418;2022-10-17T01:21:14;2.95;;;1.45;;
65936;SDS011;52707;52.086;5.418;2022-10-17T01:23:55;1.58;;;1.38;;
65936;SDS011;52707;52.086;5.418;2022-10-17T01:26:33;1.88;;;1.38;;
65936;SDS011;52707;52.086;5.418;2022-10-17T01:31:44;1.23;;;1.13;;
65936;SDS011;52707;52.086;5.418;2022-10-17T01:34:16;4.65;;;1.30;;
65936;SDS011;52707;52.086;5.418;2022-10-17T01:36:48;2.03;;;1.52;;
65936;SDS011;52707;52.086;5.418;2022-10-17T01:41:56;2.42;;;1.70;;
65936;SDS011;52707;52.086;5.418;2022-10-17T01:44:35;1.40;;;1.30;;
65936;SDS011;52707;52.086;5.418;2022-10-17T01:47:04;2.53;;;1.30;;
65936;SDS011;52707;52.086;5.418;2022-10-17T01:49:32;3.28;;;1.65;;
65936;SDS011;52707;52.086;5.418;2022-10-17T01:52:05;1.83;;;1.30;;
65936;SDS011;52707;52.086;5.418;2022-10-17T01:54:41;4.97;;;1.50;;
65936;SDS011;52707;52.086;5.418;2022-10-17T01:57:10;2.50;;;1.30;;
65936;SDS011;52707;52.086;5.418;2022-10-17T01:59:39;2.13;;;1.45;;
65936;SDS011;52707;52.086;5.418;2022-10-17T02:02:06;1.98;;;1.30;;
65936;SDS011;52707;52.086;5.418;2022-10-17T02:04:33;1.13;;;1.02;;
65936;SDS011;52707;52.086;5.418;2022-10-17T02:07:06;2.83;;;1.60;;
65936;SDS011;52707;52.086;5.418;2022-10-17T02:09:33;3.05;;;1.23;;
65936;SDS011;52707;52.086;5.418;2022-10-17T02:20:09;2.13;;;1.38;;
65936;SDS011;52707;52.086;5.418;2022-10-17T02:27:42;4.57;;;1.60;;
65936;SDS011;52707;52.086;5.418;2022-10-17T02:35:01;3.83;;;1.10;;
65936;SDS011;52707;52.086;5.418;2022-10-17T02:37:28;1.25;;;1.15;;
65936;SDS011;52707;52.086;5.418;2022-10-17T02:39:56;1.92;;;1.35;;
65936;SDS011;52707;52.086;5.418;2022-10-17T02:42:24;3.60;;;1.20;;
65936;SDS011;52707;52.086;5.418;2022-10-17T02:44:51;1.88;;;1.50;;
65936;SDS011;52707;52.086;5.418;2022-10-17T02:49:56;3.28;;;1.42;;
65936;SDS011;52707;52.086;5.418;2022-10-17T02:55:13;3.80;;;1.33;;
65936;SDS011;52707;52.086;5.418;2022-10-17T02:57:48;1.80;;;1.30;;
65936;SDS011;52707;52.086;5.418;2022-10-17T03:00:16;2.08;;;1.27;;
65936;SDS011;52707;52.086;5.418;2022-10-17T03:02:43;2.78;;;1.52;;
65936;SDS011;52707;52.086;5.418;2022-10-17T03:05:11;6.00;;;1.50;;
65936;SDS011;52707;52.086;5.418;2022-10-17T03:07:38;2.75;;;1.60;;
65936;SDS011;52707;52.086;5.418;2022-10-17T03:10:05;2.78;;;1.30;;
65936;SDS011;52707;52.086;5.418;2022-10-17T03:12:31;2.10;;;1.30;;
65936;SDS011;52707;52.086;5.418;2022-10-17T03:14:57;1.40;;;1.30;;
65936;SDS011;52707;52.086;5.418;2022-10-17T03:17:24;1.60;;;1.50;;
65936;SDS011;52707;52.086;5.418;2022-10-17T03:19:50;2.03;;;1.60;;
65936;SDS011;52707;52.086;5.418;2022-10-17T03:22:16;3.40;;;1.77;;
65936;SDS011;52707;52.086;5.418;2022-10-17T03:24:42;1.42;;;1.33;;
65936;SDS011;52707;52.086;5.418;2022-10-17T03:27:09;1.50;;;1.40;;
65936;SDS011;52707;52.086;5.418;2022-10-17T03:29:35;1.98;;;1.35;;
65936;SDS011;52707;52.086;5.418;2022-10-17T03:32:01;3.60;;;1.63;;
65936;SDS011;52707;52.086;5.418;2022-10-17T03:34:28;1.52;;;1.38;;
65936;SDS011;52707;52.086;5.418;2022-10-17T03:36:54;4.68;;;1.98;;
65936;SDS011;52707;52.086;5.418;2022-10-17T03:39:20;2.47;;;1.50;;
65936;SDS011;52707;52.086;5.418;2022-10-17T03:41:46;4.93;;;1.27;;
65936;SDS011;52707;52.086;5.418;2022-10-17T03:44:13;1.73;;;1.50;;
65936;SDS011;52707;52.086;5.418;2022-10-17T03:46:39;1.58;;;1.48;;
65936;SDS011;52707;52.086;5.418;2022-10-17T03:49:05;3.00;;;1.45;;
65936;SDS011;52707;52.086;5.418;2022-10-17T03:51:32;4.75;;;1.55;;
65936;SDS011;52707;52.086;5.418;2022-10-17T03:53:58;7.13;;;1.80;;
65936;SDS011;52707;52.086;5.418;2022-10-17T03:56:24;3.53;;;1.35;;
65936;SDS011;52707;52.086;5.418;2022-10-17T03:58:51;3.53;;;1.63;;
65936;SDS011;52707;52.086;5.418;2022-10-17T04:01:17;2.20;;;1.60;;
65936;SDS011;52707;52.086;5.418;2022-10-17T04:03:47;1.67;;;1.48;;
65936;SDS011;52707;52.086;5.418;2022-10-17T04:06:14;3.42;;;1.75;;
65936;SDS011;52707;52.086;5.418;2022-10-17T04:08:40;1.90;;;1.80;;
65936;SDS011;52707;52.086;5.418;2022-10-17T04:11:08;1.50;;;1.40;;
65936;SDS011;52707;52.086;5.418;2022-10-17T04:13:35;2.50;;;1.60;;
65936;SDS011;52707;52.086;5.418;2022-10-17T04:16:04;1.63;;;1.40;;
65936;SDS011;52707;52.086;5.418;2022-10-17T04:18:30;1.67;;;1.55;;
65936;SDS011;52707;52.086;5.418;2022-10-17T04:20:59;1.63;;;1.52;;
65936;SDS011;52707;52.086;5.418;2022-10-17T04:23:25;1.88;;;1.77;;
65936;SDS011;52707;52.086;5.418;2022-10-17T04:25:55;3.65;;;1.63;;
65936;SDS011;52707;52.086;5.418;2022-10-17T04:28:22;4.20;;;1.20;;
65936;SDS011;52707;52.086;5.418;2022-10-17T04:30:54;8.73;;;1.75;;
65936;SDS011;52707;52.086;5.418;2022-10-17T04:33:20;5.32;;;1.65;;
65936;SDS011;52707;52.086;5.418;2022-10-17T04:36:10;3.83;;;1.90;;
65936;SDS011;52707;52.086;5.418;2022-10-17T04:38:33;4.47;;;1.90;;
65936;SDS011;52707;52.086;5.418;2022-10-17T04:41:00;5.30;;;1.98;;
65936;SDS011;52707;52.086;5.418;2022-10-17T04:43:30;1.45;;;1.35;;
65936;SDS011;52707;52.086;5.418;2022-10-17T04:45:57;2.55;;;1.77;;
65936;SDS011;52707;52.086;5.418;2022-10-17T04:48:23;4.45;;;1.60;;
65936;SDS011;52707;52.086;5.418;2022-10-17T04:50:53;1.92;;;1.52;;
65936;SDS011;52707;52.086;5.418;2022-10-17T04:53:19;5.43;;;2.08;;
65936;SDS011;52707;52.086;5.418;2022-10-17T04:55:46;3.00;;;1.98;;
65936;SDS011;52707;52.086;5.418;2022-10-17T04:58:12;3.15;;;1.70;;
65936;SDS011;52707;52.086;5.418;2022-10-17T05:00:38;3.05;;;1.90;;
65936;SDS011;52707;52.086;5.418;2022-10-17T05:03:04;1.70;;;1.60;;
65936;SDS011;52707;52.086;5.418;2022-10-17T05:05:31;2.65;;;1.90;;
65936;SDS011;52707;52.086;5.418;2022-10-17T05:07:57;4.13;;;1.80;;
65936;SDS011;52707;52.086;5.418;2022-10-17T05:10:23;3.70;;;1.80;;
65936;SDS011;52707;52.086;5.418;2022-10-17T05:12:49;3.42;;;1.85;;
65936;SDS011;52707;52.086;5.418;2022-10-17T05:15:16;5.32;;;1.77;;
65936;SDS011;52707;52.086;5.418;2022-10-17T05:17:42;4.93;;;1.67;;
65936;SDS011;52707;52.086;5.418;2022-10-17T05:20:08;3.72;;;1.77;;
65936;SDS011;52707;52.086;5.418;2022-10-17T05:22:35;4.75;;;1.80;;
65936;SDS011;52707;52.086;5.418;2022-10-17T05:25:07;4.50;;;1.80;;
65936;SDS011;52707;52.086;5.418;2022-10-17T05:27:33;3.83;;;1.88;;
65936;SDS011;52707;52.086;5.418;2022-10-17T05:29:59;7.38;;;2.00;;
65936;SDS011;52707;52.086;5.418;2022-10-17T05:32:25;3.88;;;1.80;;
65936;SDS011;52707;52.086;5.418;2022-10-17T05:34:52;5.90;;;2.10;;
65936;SDS011;52707;52.086;5.418;2022-10-17T05:37:18;5.22;;;2.05;;
65936;SDS011;52707;52.086;5.418;2022-10-17T05:39:45;4.25;;;1.70;;
65936;SDS011;52707;52.086;5.418;2022-10-17T05:42:16;3.63;;;2.13;;
65936;SDS011;52707;52.086;5.418;2022-10-17T05:44:43;3.55;;;1.67;;
65936;SDS011;52707;52.086;5.418;2022-10-17T05:47:09;1.67;;;1.58;;
65936;SDS011;52707;52.086;5.418;2022-10-17T05:49:35;6.20;;;2.20;;
65936;SDS011;52707;52.086;5.418;2022-10-17T05:52:16;3.30;;;2.10;;
65936;SDS011;52707;52.086;5.418;2022-10-17T05:54:42;2.85;;;2.00;;
65936;SDS011;52707;52.086;5.418;2022-10-17T05:57:09;2.08;;;1.73;;
65936;SDS011;52707;52.086;5.418;2022-10-17T05:59:35;2.58;;;1.98;;
65936;SDS011;52707;52.086;5.418;2022-10-17T06:02:01;2.80;;;1.90;;
65936;SDS011;52707;52.086;5.418;2022-10-17T06:04:27;3.03;;;1.98;;
65936;SDS011;52707;52.086;5.418;2022-10-17T06:06:54;5.45;;;2.00;;
65936;SDS011;52707;52.086;5.418;2022-10-17T06:09:21;4.82;;;2.03;;
65936;SDS011;52707;52.086;5.418;2022-10-17T06:11:47;2.17;;;1.70;;
65936;SDS011;52707;52.086;5.418;2022-10-17T06:14:14;2.05;;;1.70;;
65936;SDS011;52707;52.086;5.418;2022-10-17T06:16:40;4.25;;;2.08;;
65936;SDS011;52707;52.086;5.418;2022-10-17T06:19:08;3.53;;;2.10;;
65936;SDS011;52707;52.086;5.418;2022-10-17T06:21:36;5.15;;;2.10;;
65936;SDS011;52707;52.086;5.418;2022-10-17T06:24:03;2.58;;;2.10;;
65936;SDS011;52707;52.086;5.418;2022-10-17T06:26:30;3.70;;;2.50;;
65936;SDS011;52707;52.086;5.418;2022-10-17T06:28:56;6.78;;;1.80;;
65936;SDS011;52707;52.086;5.418;2022-10-17T06:31:22;5.75;;;2.15;;
65936;SDS011;52707;52.086;5.418;2022-10-17T06:33:48;3.75;;;2.15;;
65936;SDS011;52707;52.086;5.418;2022-10-17T06:36:15;4.20;;;2.17;;
65936;SDS011;52707;52.086;5.418;2022-10-17T06:38:41;2.17;;;2.00;;
65936;SDS011;52707;52.086;5.418;2022-10-17T06:41:14;4.35;;;2.10;;
65936;SDS011;52707;52.086;5.418;2022-10-17T06:43:41;7.60;;;2.00;;
65936;SDS011;52707;52.086;5.418;2022-10-17T06:46:08;3.53;;;2.35;;
65936;SDS011;52707;52.086;5.418;2022-10-17T06:48:34;3.67;;;1.92;;
65936;SDS011;52707;52.086;5.418;2022-10-17T06:51:01;2.63;;;1.77;;
65936;SDS011;52707;52.086;5.418;2022-10-17T06:53:30;1.83;;;1.73;;
65936;SDS011;52707;52.086;5.418;2022-10-17T06:55:57;1.80;;;1.70;;
65936;SDS011;52707;52.086;5.418;2022-10-17T06:58:28;2.75;;;1.75;;
65936;SDS011;52707;52.086;5.418;2022-10-17T07:01:01;2.42;;;2.03;;
65936;SDS011;52707;52.086;5.418;2022-10-17T07:03:28;8.75;;;2.13;;
65936;SDS011;52707;52.086;5.418;2022-10-17T07:05:55;6.18;;;1.80;;
65936;SDS011;52707;52.086;5.418;2022-10-17T07:08:22;5.53;;;1.70;;
65936;SDS011;52707;52.086;5.418;2022-10-17T07:10:48;2.88;;;1.98;;
65936;SDS011;52707;52.086;5.418;2022-10-17T07:13:14;6.00;;;2.00;;
65936;SDS011;52707;52.086;5.418;2022-10-17T07:15:41;8.70;;;2.20;;
65936;SDS011;52707;52.086;5.418;2022-10-17T07:18:07;6.30;;;2.00;;
65936;SDS011;52707;52.086;5.418;2022-10-17T07:20:33;3.22;;;1.88;;
65936;SDS011;52707;52.086;5.418;2022-10-17T07:23:00;3.45;;;2.63;;
65936;SDS011;52707;52.086;5.418;2022-10-17T07:25:26;3.03;;;2.20;;
65936;SDS011;52707;52.086;5.418;2022-10-17T07:27:53;3.78;;;1.85;;
65936;SDS011;52707;52.086;5.418;2022-10-17T07:30:19;3.10;;;2.00;;
65936;SDS011;52707;52.086;5.418;2022-10-17T07:32:46;2.20;;;2.00;;
65936;SDS011;52707;52.086;5.418;2022-10-17T07:35:13;3.33;;;1.90;;
65936;SDS011;52707;52.086;5.418;2022-10-17T07:37:39;5.03;;;2.20;;
65936;SDS011;52707;52.086;5.418;2022-10-17T07:40:06;8.05;;;2.10;;
65936;SDS011;52707;52.086;5.418;2022-10-17T07:42:35;7.05;;;2.80;;
65936;SDS011;52707;52.086;5.418;2022-10-17T07:45:01;6.45;;;2.50;;
65936;SDS011;52707;52.086;5.418;2022-10-17T07:47:28;8.90;;;2.58;;
65936;SDS011;52707;52.086;5.418;2022-10-17T07:49:57;10.15;;;3.08;;
65936;SDS011;52707;52.086;5.418;2022-10-17T07:52:23;9.90;;;3.60;;
65936;SDS011;52707;52.086;5.418;2022-10-17T07:54:49;7.03;;;3.03;;
65936;SDS011;52707;52.086;5.418;2022-10-17T07:57:15;9.82;;;3.20;;
65936;SDS011;52707;52.086;5.418;2022-10-17T07:59:42;6.18;;;3.20;;
65936;SDS011;52707;52.086;5.418;2022-10-17T08:02:10;5.65;;;3.22;;
65936;SDS011;52707;52.086;5.418;2022-10-17T08:04:39;5.97;;;3.53;;
65936;SDS011;52707;52.086;5.418;2022-10-17T08:07:05;8.45;;;3.83;;
65936;SDS011;52707;52.086;5.418;2022-10-17T08:09:45;11.60;;;3.90;;
65936;SDS011;52707;52.086;5.418;2022-10-17T08:12:11;6.25;;;3.03;;
65936;SDS011;52707;52.086;5.418;2022-10-17T08:14:42;7.55;;;2.95;;
65936;SDS011;52707;52.086;5.418;2022-10-17T08:17:08;4.03;;;2.70;;
65936;SDS011;52707;52.086;5.418;2022-10-17T08:19:38;9.07;;;3.25;;
65936;SDS011;52707;52.086;5.418;2022-10-17T08:22:05;6.63;;;2.83;;
65936;SDS011;52707;52.086;5.418;2022-10-17T08:24:32;8.27;;;3.17;;
65936;SDS011;52707;52.086;5.418;2022-10-17T08:26:58;8.43;;;2.97;;
65936;SDS011;52707;52.086;5.418;2022-10-17T08:29:25;4.00;;;2.78;;
65936;SDS011;52707;52.086;5.418;2022-10-17T08:31:52;4.63;;;2.65;;
65936;SDS011;52707;52.086;5.418;2022-10-17T08:34:26;9.10;;;2.78;;
65936;SDS011;52707;52.086;5.418;2022-10-17T08:36:52;6.03;;;3.15;;
65936;SDS011;52707;52.086;5.418;2022-10-17T08:39:19;3.15;;;2.85;;
65936;SDS011;52707;52.086;5.418;2022-10-17T08:41:52;4.00;;;2.88;;
65936;SDS011;52707;52.086;5.418;2022-10-17T08:44:23;5.53;;;2.88;;
65936;SDS011;52707;52.086;5.418;2022-10-17T08:46:51;5.35;;;2.45;;
65936;SDS011;52707;52.086;5.418;2022-10-17T08:49:24;6.03;;;2.83;;
65936;SDS011;52707;52.086;5.418;2022-10-17T08:51:53;6.40;;;2.50;;
65936;SDS011;52707;52.086;5.418;2022-10-17T08:54:24;11.10;;;3.00;;
65936;SDS011;52707;52.086;5.418;2022-10-17T08:56:56;4.90;;;2.50;;
65936;SDS011;52707;52.086;5.418;2022-10-17T08:59:24;8.30;;;2.72;;
65936;SDS011;52707;52.086;5.418;2022-10-17T09:01:56;3.75;;;2.60;;
65936;SDS011;52707;52.086;5.418;2022-10-17T09:12:21;3.78;;;2.50;;
65936;SDS011;52707;52.086;5.418;2022-10-17T09:14:52;5.72;;;2.65;;
65936;SDS011;52707;52.086;5.418;2022-10-17T09:22:19;2.95;;;2.53;;
65936;SDS011;52707;52.086;5.418;2022-10-17T09:27:26;3.17;;;2.47;;
65936;SDS011;52707;52.086;5.418;2022-10-17T09:30:13;3.90;;;2.50;;
65936;SDS011;52707;52.086;5.418;2022-10-17T09:33:00;2.35;;;2.13;;
65936;SDS011;52707;52.086;5.418;2022-10-17T09:35:40;3.78;;;2.75;;
65936;SDS011;52707;52.086;5.418;2022-10-17T09:38:17;3.85;;;2.45;;
65936;SDS011;52707;52.086;5.418;2022-10-17T09:40:43;4.50;;;2.97;;
65936;SDS011;52707;52.086;5.418;2022-10-17T09:43:12;5.57;;;2.60;;
65936;SDS011;52707;52.086;5.418;2022-10-17T09:45:42;3.42;;;2.67;;
65936;SDS011;52707;52.086;5.418;2022-10-17T09:48:21;2.97;;;2.60;;
65936;SDS011;52707;52.086;5.418;2022-10-17T09:50:48;4.35;;;2.90;;
65936;SDS011;52707;52.086;5.418;2022-10-17T09:53:34;5.25;;;2.70;;
65936;SDS011;52707;52.086;5.418;2022-10-17T09:56:02;4.18;;;2.80;;
65936;SDS011;52707;52.086;5.418;2022-10-17T10:01:24;2.72;;;2.47;;
65936;SDS011;52707;52.086;5.418;2022-10-17T10:04:07;4.60;;;2.85;;
65936;SDS011;52707;52.086;5.418;2022-10-17T10:06:34;4.30;;;2.50;;
65936;SDS011;52707;52.086;5.418;2022-10-17T10:09:00;4.60;;;2.70;;
65936;SDS011;52707;52.086;5.418;2022-10-17T10:13:57;2.78;;;2.45;;
65936;SDS011;52707;52.086;5.418;2022-10-17T10:16:40;4.55;;;2.97;;
65936;SDS011;52707;52.086;5.418;2022-10-17T10:19:18;3.28;;;2.70;;
65936;SDS011;52707;52.086;5.418;2022-10-17T10:22:04;3.17;;;2.28;;
65936;SDS011;52707;52.086;5.418;2022-10-17T10:24:30;4.60;;;2.55;;
65936;SDS011;52707;52.086;5.418;2022-10-17T10:27:06;3.50;;;2.40;;
65936;SDS011;52707;52.086;5.418;2022-10-17T10:29:41;2.60;;;2.38;;
65936;SDS011;52707;52.086;5.418;2022-10-17T10:34:47;2.65;;;1.88;;
65936;SDS011;52707;52.086;5.418;2022-10-17T10:37:21;6.82;;;1.95;;
65936;SDS011;52707;52.086;5.418;2022-10-17T10:42:25;4.03;;;2.00;;
65936;SDS011;52707;52.086;5.418;2022-10-17T10:44:53;10.73;;;1.77;;
65936;SDS011;52707;52.086;5.418;2022-10-17T10:47:26;2.92;;;1.90;;
65936;SDS011;52707;52.086;5.418;2022-10-17T10:57:45;2.90;;;1.67;;
65936;SDS011;52707;52.086;5.418;2022-10-17T11:00:14;10.93;;;1.65;;
65936;SDS011;52707;52.086;5.418;2022-10-17T11:02:49;6.05;;;2.05;;
65936;SDS011;52707;52.086;5.418;2022-10-17T11:05:21;2.22;;;1.63;;
65936;SDS011;52707;52.086;5.418;2022-10-17T11:10:23;4.57;;;1.67;;
65936;SDS011;52707;52.086;5.418;2022-10-17T11:13:35;4.43;;;1.95;;
65936;SDS011;52707;52.086;5.418;2022-10-17T11:15:43;5.23;;;1.97;;
65936;SDS011;52707;52.086;5.418;2022-10-17T11:18:13;4.93;;;1.70;;
65936;SDS011;52707;52.086;5.418;2022-10-17T11:20:45;3.63;;;1.83;;
65936;SDS011;52707;52.086;5.418;2022-10-17T11:23:16;4.55;;;1.80;;
65936;SDS011;52707;52.086;5.418;2022-10-17T11:25:47;3.80;;;1.52;;
65936;SDS011;52707;52.086;5.418;2022-10-17T11:28:15;3.47;;;1.58;;
65936;SDS011;52707;52.086;5.418;2022-10-17T11:30:53;3.13;;;1.67;;
65936;SDS011;52707;52.086;5.418;2022-10-17T11:33:23;4.32;;;1.52;;
65936;SDS011;52707;52.086;5.418;2022-10-17T11:35:51;2.03;;;1.43;;
65936;SDS011;52707;52.086;5.418;2022-10-17T11:38:20;3.67;;;1.83;;
65936;SDS011;52707;52.086;5.418;2022-10-17T11:40:48;2.22;;;1.75;;
65936;SDS011;52707;52.086;5.418;2022-10-17T11:43:17;3.40;;;1.88;;
65936;SDS011;52707;52.086;5.418;2022-10-17T11:45:46;3.90;;;1.55;;
65936;SDS011;52707;52.086;5.418;2022-10-17T11:48:18;5.28;;;1.80;;
65936;SDS011;52707;52.086;5.418;2022-10-17T11:50:47;4.90;;;1.52;;
65936;SDS011;52707;52.086;5.418;2022-10-17T12:01:58;4.30;;;1.52;;
65936;SDS011;52707;52.086;5.418;2022-10-17T12:09:40;2.10;;;1.10;;
65936;SDS011;52707;52.086;5.418;2022-10-17T12:12:08;2.40;;;1.50;;
65936;SDS011;52707;52.086;5.418;2022-10-17T12:22:49;1.40;;;1.30;;
65936;SDS011;52707;52.086;5.418;2022-10-17T12:25:19;1.55;;;1.33;;
65936;SDS011;52707;52.086;5.418;2022-10-17T12:27:46;2.67;;;1.52;;
65936;SDS011;52707;52.086;5.418;2022-10-17T12:30:20;8.93;;;1.80;;
65936;SDS011;52707;52.086;5.418;2022-10-17T12:35:32;2.38;;;1.80;;
65936;SDS011;52707;52.086;5.418;2022-10-17T12:37:59;3.33;;;1.52;;
65936;SDS011;52707;52.086;5.418;2022-10-17T12:43:02;1.25;;;1.13;;
65936;SDS011;52707;52.086;5.418;2022-10-17T12:56:14;1.33;;;1.23;;
65936;SDS011;52707;52.086;5.418;2022-10-17T12:58:42;1.38;;;1.10;;
65936;SDS011;52707;52.086;5.418;2022-10-17T13:01:14;6.38;;;1.50;;
65936;SDS011;52707;52.086;5.418;2022-10-17T13:06:21;1.50;;;1.15;;
65936;SDS011;52707;52.086;5.418;2022-10-17T13:08:48;8.65;;;1.50;;
65936;SDS011;52707;52.086;5.418;2022-10-17T13:11:22;4.43;;;1.30;;
65936;SDS011;52707;52.086;5.418;2022-10-17T13:13:49;2.72;;;1.50;;
65936;SDS011;52707;52.086;5.418;2022-10-17T13:18:56;2.85;;;1.10;;
65936;SDS011;52707;52.086;5.418;2022-10-17T13:21:23;5.18;;;1.10;;
65936;SDS011;52707;52.086;5.418;2022-10-17T13:23:49;5.75;;;1.52;;
65936;SDS011;52707;52.086;5.418;2022-10-17T13:26:19;2.72;;;1.58;;
65936;SDS011;52707;52.086;5.418;2022-10-17T13:28:59;5.85;;;1.35;;
65936;SDS011;52707;52.086;5.418;2022-10-17T13:31:32;5.72;;;1.45;;
65936;SDS011;52707;52.086;5.418;2022-10-17T13:34:00;9.38;;;1.73;;
65936;SDS011;52707;52.086;5.418;2022-10-17T13:36:27;3.00;;;1.20;;
65936;SDS011;52707;52.086;5.418;2022-10-17T13:38:54;6.15;;;1.17;;
65936;SDS011;52707;52.086;5.418;2022-10-17T13:41:22;1.85;;;1.35;;
65936;SDS011;52707;52.086;5.418;2022-10-17T13:44:02;4.25;;;1.20;;
65936;SDS011;52707;52.086;5.418;2022-10-17T13:46:30;3.53;;;1.40;;
65936;SDS011;52707;52.086;5.418;2022-10-17T13:51:42;4.55;;;1.58;;
65936;SDS011;52707;52.086;5.418;2022-10-17T13:56:57;10.45;;;1.60;;
65936;SDS011;52707;52.086;5.418;2022-10-17T13:59:24;3.70;;;1.65;;
65936;SDS011;52707;52.086;5.418;2022-10-17T14:01:51;6.30;;;1.90;;
65936;SDS011;52707;52.086;5.418;2022-10-17T14:04:20;5.35;;;1.77;;
65936;SDS011;52707;52.086;5.418;2022-10-17T14:06:46;10.98;;;1.60;;
65936;SDS011;52707;52.086;5.418;2022-10-17T14:09:21;7.20;;;1.90;;
65936;SDS011;52707;52.086;5.418;2022-10-17T14:14:27;4.93;;;1.60;;
65936;SDS011;52707;52.086;5.418;2022-10-17T14:16:55;9.50;;;1.58;;
65936;SDS011;52707;52.086;5.418;2022-10-17T14:21:54;7.03;;;1.50;;
65936;SDS011;52707;52.086;5.418;2022-10-17T14:26:49;10.25;;;2.33;;
65936;SDS011;52707;52.086;5.418;2022-10-17T14:32:01;9.55;;;2.10;;
65936;SDS011;52707;52.086;5.418;2022-10-17T14:34:29;7.47;;;1.60;;
65936;SDS011;52707;52.086;5.418;2022-10-17T14:36:55;12.80;;;2.38;;
65936;SDS011;52707;52.086;5.418;2022-10-17T14:39:22;11.18;;;2.97;;
65936;SDS011;52707;52.086;5.418;2022-10-17T14:41:50;13.68;;;2.30;;
65936;SDS011;52707;52.086;5.418;2022-10-17T14:46:47;11.75;;;2.63;;
65936;SDS011;52707;52.086;5.418;2022-10-17T14:49:17;13.15;;;2.80;;
65936;SDS011;52707;52.086;5.418;2022-10-17T14:54:38;5.93;;;1.83;;
65936;SDS011;52707;52.086;5.418;2022-10-17T14:57:12;8.68;;;2.17;;
65936;SDS011;52707;52.086;5.418;2022-10-17T14:59:39;11.63;;;2.20;;
65936;SDS011;52707;52.086;5.418;2022-10-17T15:02:20;15.50;;;1.77;;
65936;SDS011;52707;52.086;5.418;2022-10-17T15:04:46;11.52;;;2.13;;
65936;SDS011;52707;52.086;5.418;2022-10-17T15:07:13;9.38;;;1.95;;
65936;SDS011;52707;52.086;5.418;2022-10-17T15:09:40;12.57;;;2.33;;
65936;SDS011;52707;52.086;5.418;2022-10-17T15:12:10;11.48;;;1.98;;
65936;SDS011;52707;52.086;5.418;2022-10-17T15:14:37;7.47;;;2.30;;
65936;SDS011;52707;52.086;5.418;2022-10-17T15:17:08;4.90;;;2.13;;
65936;SDS011;52707;52.086;5.418;2022-10-17T15:19:35;12.65;;;2.20;;
65936;SDS011;52707;52.086;5.418;2022-10-17T15:22:01;7.25;;;1.95;;
65936;SDS011;52707;52.086;5.418;2022-10-17T15:24:27;11.35;;;1.88;;
65936;SDS011;52707;52.086;5.418;2022-10-17T15:26:54;9.32;;;1.85;;
65936;SDS011;52707;52.086;5.418;2022-10-17T15:29:21;6.38;;;1.77;;
65936;SDS011;52707;52.086;5.418;2022-10-17T15:31:47;5.78;;;2.25;;
65936;SDS011;52707;52.086;5.418;2022-10-17T15:34:14;8.70;;;2.33;;
65936;SDS011;52707;52.086;5.418;2022-10-17T15:36:40;5.03;;;2.10;;
65936;SDS011;52707;52.086;5.418;2022-10-17T15:39:08;10.85;;;2.22;;
65936;SDS011;52707;52.086;5.418;2022-10-17T15:41:34;5.88;;;2.17;;
65936;SDS011;52707;52.086;5.418;2022-10-17T15:44:00;4.65;;;2.03;;
65936;SDS011;52707;52.086;5.418;2022-10-17T15:46:31;4.50;;;2.22;;
65936;SDS011;52707;52.086;5.418;2022-10-17T15:49:02;4.53;;;2.08;;
65936;SDS011;52707;52.086;5.418;2022-10-17T15:51:29;15.90;;;2.38;;
65936;SDS011;52707;52.086;5.418;2022-10-17T15:53:55;7.45;;;2.30;;
65936;SDS011;52707;52.086;5.418;2022-10-17T15:56:23;9.15;;;2.03;;
65936;SDS011;52707;52.086;5.418;2022-10-17T15:58:50;6.40;;;2.17;;
65936;SDS011;52707;52.086;5.418;2022-10-17T16:01:18;5.90;;;2.40;;
65936;SDS011;52707;52.086;5.418;2022-10-17T16:03:45;4.22;;;2.30;;
65936;SDS011;52707;52.086;5.418;2022-10-17T16:06:13;4.47;;;2.08;;
65936;SDS011;52707;52.086;5.418;2022-10-17T16:08:40;3.65;;;2.42;;
65936;SDS011;52707;52.086;5.418;2022-10-17T16:11:08;7.18;;;2.13;;
65936;SDS011;52707;52.086;5.418;2022-10-17T16:13:35;3.75;;;2.22;;
65936;SDS011;52707;52.086;5.418;2022-10-17T16:16:01;5.95;;;2.28;;
65936;SDS011;52707;52.086;5.418;2022-10-17T16:18:27;6.85;;;1.88;;
65936;SDS011;52707;52.086;5.418;2022-10-17T16:20:53;4.55;;;1.83;;
65936;SDS011;52707;52.086;5.418;2022-10-17T16:23:20;4.03;;;2.00;;
65936;SDS011;52707;52.086;5.418;2022-10-17T16:25:46;4.55;;;2.15;;
65936;SDS011;52707;52.086;5.418;2022-10-17T16:28:12;6.95;;;2.72;;
65936;SDS011;52707;52.086;5.418;2022-10-17T16:30:40;6.78;;;2.40;;
65936;SDS011;52707;52.086;5.418;2022-10-17T16:33:07;10.90;;;2.55;;
65936;SDS011;52707;52.086;5.418;2022-10-17T16:35:35;5.88;;;2.13;;
65936;SDS011;52707;52.086;5.418;2022-10-17T16:38:03;4.57;;;2.45;;
65936;SDS011;52707;52.086;5.418;2022-10-17T16:40:30;5.43;;;2.15;;
65936;SDS011;52707;52.086;5.418;2022-10-17T16:42:56;7.72;;;2.33;;
65936;SDS011;52707;52.086;5.418;2022-10-17T16:45:22;4.25;;;2.40;;
65936;SDS011;52707;52.086;5.418;2022-10-17T16:47:48;2.53;;;2.10;;
65936;SDS011;52707;52.086;5.418;2022-10-17T16:50:15;4.60;;;1.98;;
65936;SDS011;52707;52.086;5.418;2022-10-17T16:52:41;8.90;;;2.33;;
65936;SDS011;52707;52.086;5.418;2022-10-17T16:55:08;4.20;;;2.10;;
65936;SDS011;52707;52.086;5.418;2022-10-17T16:57:35;3.53;;;2.17;;
65936;SDS011;52707;52.086;5.418;2022-10-17T17:00:02;4.68;;;2.17;;
65936;SDS011;52707;52.086;5.418;2022-10-17T17:02:28;5.97;;;1.83;;
65936;SDS011;52707;52.086;5.418;2022-10-17T17:04:55;4.07;;;2.10;;
65936;SDS011;52707;52.086;5.418;2022-10-17T17:07:21;4.07;;;2.22;;
65936;SDS011;52707;52.086;5.418;2022-10-17T17:09:49;13.05;;;2.53;;
65936;SDS011;52707;52.086;5.418;2022-10-17T17:12:15;4.70;;;2.30;;